sensor_id;sensor_type;location;lat;lon;timestamp;P1;durP1;ratioP1;P2;durP2;ratioP2
82221;SDS011;71818;52.352;10.912;2023-08-24T00:01:14;1.52;;;1.42;;
82221;SDS011;71818;52.352;10.912;2023-08-24T00:03:41;1.45;;;1.35;;
82221;SDS011;71818;52.352;10.912;2023-08-24T00:06:08;0.60;;;0.60;;
82221;SDS011;71818;52.352;10.912;2023-08-24T00:08:34;0.52;;;0.52;;
82221;SDS011;71818;52.352;10.912;2023-08-24T00:10:59;1.08;;;1.08;;
82221;SDS011;71818;52.352;10.912;2023-08-24T00:13:25;1.33;;;1.23;;
82221;SDS011;71818;52.352;10.912;2023-08-24T00:15:51;0.57;;;0.57;;
82221;SDS011;71818;52.352;10.912;2023-08-24T00:18:18;1.50;;;1.40;;
82221;SDS011;71818;52.352;10.912;2023-08-24T00:20:44;1.20;;;1.10;;
82221;SDS011;71818;52.352;10.912;2023-08-24T00:23:09;0.90;;;0.90;;
82221;SDS011;71818;52.352;10.912;2023-08-24T00:25:35;0.50;;;0.50;;
82221;SDS011;71818;52.352;10.912;2023-08-24T00:28:00;1.48;;;1.38;;
82221;SDS011;71818;52.352;10.912;2023-08-24T00:30:26;0.43;;;0.43;;
82221;SDS011;71818;52.352;10.912;2023-08-24T00:32:51;1.25;;;1.15;;
82221;SDS011;71818;52.352;10.912;2023-08-24T00:35:16;0.70;;;0.70;;
82221;SDS011;71818;52.352;10.912;2023-08-24T00:37:42;1.30;;;1.20;;
82221;SDS011;71818;52.352;10.912;2023-08-24T00:40:07;1.30;;;1.20;;
82221;SDS011;71818;52.352;10.912;2023-08-24T00:42:38;1.15;;;1.15;;
82221;SDS011;71818;52.352;10.912;2023-08-24T00:45:04;1.90;;;1.80;;
82221;SDS011;71818;52.352;10.912;2023-08-24T00:47:30;1.20;;;1.20;;
82221;SDS011;71818;52.352;10.912;2023-08-24T00:49:56;1.58;;;1.48;;
82221;SDS011;71818;52.352;10.912;2023-08-24T00:52:24;1.60;;;1.50;;
82221;SDS011;71818;52.352;10.912;2023-08-24T00:54:50;1.55;;;1.45;;
82221;SDS011;71818;52.352;10.912;2023-08-24T00:57:16;1.00;;;1.00;;
82221;SDS011;71818;52.352;10.912;2023-08-24T00:59:42;0.60;;;0.60;;
82221;SDS011;71818;52.352;10.912;2023-08-24T01:02:07;1.23;;;1.13;;
82221;SDS011;71818;52.352;10.912;2023-08-24T01:04:33;1.67;;;1.58;;
82221;SDS011;71818;52.352;10.912;2023-08-24T01:06:58;1.40;;;1.30;;
82221;SDS011;71818;52.352;10.912;2023-08-24T01:09:23;1.52;;;1.42;;
82221;SDS011;71818;52.352;10.912;2023-08-24T01:11:53;1.73;;;1.63;;
82221;SDS011;71818;52.352;10.912;2023-08-24T01:14:27;1.42;;;1.33;;
82221;SDS011;71818;52.352;10.912;2023-08-24T01:17:01;1.52;;;1.42;;
82221;SDS011;71818;52.352;10.912;2023-08-24T01:19:42;1.20;;;1.20;;
82221;SDS011;71818;52.352;10.912;2023-08-24T01:25:06;1.27;;;1.17;;
82221;SDS011;71818;52.352;10.912;2023-08-24T01:27:35;1.02;;;1.02;;
82221;SDS011;71818;52.352;10.912;2023-08-24T01:30:02;0.73;;;0.73;;
82221;SDS011;71818;52.352;10.912;2023-08-24T01:32:32;1.70;;;1.60;;
82221;SDS011;71818;52.352;10.912;2023-08-24T01:34:59;0.43;;;0.43;;
82221;SDS011;71818;52.352;10.912;2023-08-24T01:37:26;1.50;;;1.40;;
82221;SDS011;71818;52.352;10.912;2023-08-24T01:43:04;1.35;;;1.25;;
82221;SDS011;71818;52.352;10.912;2023-08-24T01:45:32;1.20;;;1.20;;
82221;SDS011;71818;52.352;10.912;2023-08-24T01:47:59;1.45;;;1.35;;
82221;SDS011;71818;52.352;10.912;2023-08-24T01:50:28;1.65;;;1.55;;
82221;SDS011;71818;52.352;10.912;2023-08-24T01:52:54;0.82;;;0.82;;
82221;SDS011;71818;52.352;10.912;2023-08-24T01:55:20;1.42;;;1.33;;
82221;SDS011;71818;52.352;10.912;2023-08-24T01:57:46;1.42;;;1.33;;
82221;SDS011;71818;52.352;10.912;2023-08-24T02:00:13;0.45;;;0.45;;
82221;SDS011;71818;52.352;10.912;2023-08-24T02:02:38;1.77;;;1.67;;
82221;SDS011;71818;52.352;10.912;2023-08-24T02:05:04;1.50;;;1.40;;
82221;SDS011;71818;52.352;10.912;2023-08-24T02:07:30;1.52;;;1.42;;
82221;SDS011;71818;52.352;10.912;2023-08-24T02:09:55;1.10;;;1.10;;
82221;SDS011;71818;52.352;10.912;2023-08-24T02:12:20;1.63;;;1.52;;
82221;SDS011;71818;52.352;10.912;2023-08-24T02:14:46;0.68;;;0.68;;
82221;SDS011;71818;52.352;10.912;2023-08-24T02:17:11;1.42;;;1.33;;
82221;SDS011;71818;52.352;10.912;2023-08-24T02:19:36;1.63;;;1.52;;
82221;SDS011;71818;52.352;10.912;2023-08-24T02:22:02;1.50;;;1.40;;
82221;SDS011;71818;52.352;10.912;2023-08-24T02:24:27;1.45;;;1.35;;
82221;SDS011;71818;52.352;10.912;2023-08-24T02:26:52;1.35;;;1.25;;
82221;SDS011;71818;52.352;10.912;2023-08-24T02:29:18;1.92;;;1.83;;
82221;SDS011;71818;52.352;10.912;2023-08-24T02:31:43;1.17;;;1.17;;
82221;SDS011;71818;52.352;10.912;2023-08-24T02:34:09;0.40;;;0.40;;
82221;SDS011;71818;52.352;10.912;2023-08-24T02:36:34;1.30;;;1.23;;
82221;SDS011;71818;52.352;10.912;2023-08-24T02:39:00;1.08;;;1.00;;
82221;SDS011;71818;52.352;10.912;2023-08-24T02:41:25;1.40;;;1.30;;
82221;SDS011;71818;52.352;10.912;2023-08-24T02:43:51;1.55;;;1.45;;
82221;SDS011;71818;52.352;10.912;2023-08-24T02:46:16;0.60;;;0.60;;
82221;SDS011;71818;52.352;10.912;2023-08-24T02:48:43;1.33;;;1.23;;
82221;SDS011;71818;52.352;10.912;2023-08-24T02:51:09;0.52;;;0.52;;
82221;SDS011;71818;52.352;10.912;2023-08-24T02:53:35;1.30;;;1.20;;
82221;SDS011;71818;52.352;10.912;2023-08-24T02:56:02;1.65;;;1.55;;
82221;SDS011;71818;52.352;10.912;2023-08-24T02:58:28;0.95;;;0.95;;
82221;SDS011;71818;52.352;10.912;2023-08-24T03:00:54;1.20;;;1.20;;
82221;SDS011;71818;52.352;10.912;2023-08-24T03:03:20;1.55;;;1.45;;
82221;SDS011;71818;52.352;10.912;2023-08-24T03:06:01;1.70;;;1.60;;
82221;SDS011;71818;52.352;10.912;2023-08-24T03:08:29;1.50;;;1.40;;
82221;SDS011;71818;52.352;10.912;2023-08-24T03:10:55;1.45;;;1.35;;
82221;SDS011;71818;52.352;10.912;2023-08-24T03:13:22;1.15;;;1.13;;
82221;SDS011;71818;52.352;10.912;2023-08-24T03:15:47;1.55;;;1.45;;
82221;SDS011;71818;52.352;10.912;2023-08-24T03:18:13;1.50;;;1.40;;
82221;SDS011;71818;52.352;10.912;2023-08-24T03:20:42;1.90;;;1.80;;
82221;SDS011;71818;52.352;10.912;2023-08-24T03:23:08;1.42;;;1.35;;
82221;SDS011;71818;52.352;10.912;2023-08-24T03:25:37;1.42;;;1.40;;
82221;SDS011;71818;52.352;10.912;2023-08-24T03:28:04;1.70;;;1.60;;
82221;SDS011;71818;52.352;10.912;2023-08-24T03:30:32;1.52;;;1.42;;
82221;SDS011;71818;52.352;10.912;2023-08-24T03:32:59;0.57;;;0.57;;
82221;SDS011;71818;52.352;10.912;2023-08-24T03:35:24;1.70;;;1.60;;
82221;SDS011;71818;52.352;10.912;2023-08-24T03:37:49;1.48;;;1.38;;
82221;SDS011;71818;52.352;10.912;2023-08-24T03:40:16;0.43;;;0.43;;
82221;SDS011;71818;52.352;10.912;2023-08-24T03:42:41;1.63;;;1.52;;
82221;SDS011;71818;52.352;10.912;2023-08-24T03:45:06;1.77;;;1.67;;
82221;SDS011;71818;52.352;10.912;2023-08-24T03:47:32;1.75;;;1.65;;
82221;SDS011;71818;52.352;10.912;2023-08-24T03:49:57;1.73;;;1.63;;
82221;SDS011;71818;52.352;10.912;2023-08-24T03:52:22;1.40;;;1.30;;
82221;SDS011;71818;52.352;10.912;2023-08-24T03:54:48;1.60;;;1.50;;
82221;SDS011;71818;52.352;10.912;2023-08-24T03:57:14;1.60;;;1.50;;
82221;SDS011;71818;52.352;10.912;2023-08-24T03:59:40;1.33;;;1.23;;
82221;SDS011;71818;52.352;10.912;2023-08-24T04:02:06;1.15;;;1.15;;
82221;SDS011;71818;52.352;10.912;2023-08-24T04:04:31;1.63;;;1.52;;
82221;SDS011;71818;52.352;10.912;2023-08-24T04:06:56;1.65;;;1.55;;
82221;SDS011;71818;52.352;10.912;2023-08-24T04:09:22;1.60;;;1.50;;
82221;SDS011;71818;52.352;10.912;2023-08-24T04:11:47;1.42;;;1.33;;
82221;SDS011;71818;52.352;10.912;2023-08-24T04:14:12;1.85;;;1.75;;
82221;SDS011;71818;52.352;10.912;2023-08-24T04:16:39;1.35;;;1.25;;
82221;SDS011;71818;52.352;10.912;2023-08-24T04:19:04;1.63;;;1.52;;
82221;SDS011;71818;52.352;10.912;2023-08-24T04:21:29;1.50;;;1.40;;
82221;SDS011;71818;52.352;10.912;2023-08-24T04:23:55;1.40;;;1.30;;
82221;SDS011;71818;52.352;10.912;2023-08-24T04:26:20;1.55;;;1.45;;
82221;SDS011;71818;52.352;10.912;2023-08-24T04:28:45;1.40;;;1.33;;
82221;SDS011;71818;52.352;10.912;2023-08-24T04:31:11;0.52;;;0.52;;
82221;SDS011;71818;52.352;10.912;2023-08-24T04:33:36;1.52;;;1.42;;
82221;SDS011;71818;52.352;10.912;2023-08-24T04:36:02;1.67;;;1.58;;
82221;SDS011;71818;52.352;10.912;2023-08-24T04:38:30;1.50;;;1.40;;
82221;SDS011;71818;52.352;10.912;2023-08-24T04:40:56;1.40;;;1.30;;
82221;SDS011;71818;52.352;10.912;2023-08-24T04:43:22;2.13;;;2.03;;
82221;SDS011;71818;52.352;10.912;2023-08-24T04:45:49;1.70;;;1.60;;
82221;SDS011;71818;52.352;10.912;2023-08-24T04:48:22;1.50;;;1.40;;
82221;SDS011;71818;52.352;10.912;2023-08-24T04:50:48;1.77;;;1.67;;
82221;SDS011;71818;52.352;10.912;2023-08-24T04:53:15;1.60;;;1.50;;
82221;SDS011;71818;52.352;10.912;2023-08-24T04:55:42;1.45;;;1.35;;
82221;SDS011;71818;52.352;10.912;2023-08-24T04:58:08;0.65;;;0.65;;
82221;SDS011;71818;52.352;10.912;2023-08-24T05:00:35;1.30;;;1.20;;
82221;SDS011;71818;52.352;10.912;2023-08-24T05:03:02;1.63;;;1.52;;
82221;SDS011;71818;52.352;10.912;2023-08-24T05:05:28;1.23;;;1.20;;
82221;SDS011;71818;52.352;10.912;2023-08-24T05:07:55;1.55;;;1.45;;
82221;SDS011;71818;52.352;10.912;2023-08-24T05:10:20;0.45;;;0.45;;
82221;SDS011;71818;52.352;10.912;2023-08-24T05:12:46;1.58;;;1.48;;
82221;SDS011;71818;52.352;10.912;2023-08-24T05:15:11;1.08;;;1.08;;
82221;SDS011;71818;52.352;10.912;2023-08-24T05:17:38;1.65;;;1.55;;
82221;SDS011;71818;52.352;10.912;2023-08-24T05:20:03;1.52;;;1.42;;
82221;SDS011;71818;52.352;10.912;2023-08-24T05:22:29;1.00;;;1.00;;
82221;SDS011;71818;52.352;10.912;2023-08-24T05:24:54;1.35;;;1.25;;
82221;SDS011;71818;52.352;10.912;2023-08-24T05:27:20;0.80;;;0.80;;
82221;SDS011;71818;52.352;10.912;2023-08-24T05:29:45;1.90;;;1.80;;
82221;SDS011;71818;52.352;10.912;2023-08-24T05:32:10;1.38;;;1.38;;
82221;SDS011;71818;52.352;10.912;2023-08-24T05:34:36;1.27;;;1.17;;
82221;SDS011;71818;52.352;10.912;2023-08-24T05:37:01;1.53;;;1.43;;
82221;SDS011;71818;52.352;10.912;2023-08-24T05:39:26;1.38;;;1.27;;
82221;SDS011;71818;52.352;10.912;2023-08-24T05:41:52;1.35;;;1.25;;
82221;SDS011;71818;52.352;10.912;2023-08-24T05:44:20;1.10;;;1.10;;
82221;SDS011;71818;52.352;10.912;2023-08-24T05:46:46;0.90;;;0.90;;
82221;SDS011;71818;52.352;10.912;2023-08-24T05:49:12;1.05;;;1.05;;
82221;SDS011;71818;52.352;10.912;2023-08-24T05:51:37;0.50;;;0.50;;
82221;SDS011;71818;52.352;10.912;2023-08-24T05:54:03;1.13;;;1.13;;
82221;SDS011;71818;52.352;10.912;2023-08-24T05:56:28;1.00;;;1.00;;
82221;SDS011;71818;52.352;10.912;2023-08-24T05:58:54;1.05;;;1.05;;
82221;SDS011;71818;52.352;10.912;2023-08-24T06:01:20;0.98;;;0.98;;
82221;SDS011;71818;52.352;10.912;2023-08-24T06:03:45;1.08;;;1.08;;
82221;SDS011;71818;52.352;10.912;2023-08-24T06:06:11;1.05;;;1.05;;
82221;SDS011;71818;52.352;10.912;2023-08-24T06:08:36;1.00;;;1.00;;
82221;SDS011;71818;52.352;10.912;2023-08-24T06:11:02;0.50;;;0.50;;
82221;SDS011;71818;52.352;10.912;2023-08-24T06:13:27;1.40;;;1.30;;
82221;SDS011;71818;52.352;10.912;2023-08-24T06:15:53;1.40;;;1.30;;
82221;SDS011;71818;52.352;10.912;2023-08-24T06:18:19;0.93;;;0.93;;
82221;SDS011;71818;52.352;10.912;2023-08-24T06:20:45;0.45;;;0.45;;
82221;SDS011;71818;52.352;10.912;2023-08-24T06:23:11;0.88;;;0.88;;
82221;SDS011;71818;52.352;10.912;2023-08-24T06:25:38;1.00;;;1.00;;
82221;SDS011;71818;52.352;10.912;2023-08-24T06:28:03;0.63;;;0.63;;
82221;SDS011;71818;52.352;10.912;2023-08-24T06:30:29;0.65;;;0.65;;
82221;SDS011;71818;52.352;10.912;2023-08-24T06:33:01;0.60;;;0.60;;
82221;SDS011;71818;52.352;10.912;2023-08-24T06:35:28;0.47;;;0.47;;
82221;SDS011;71818;52.352;10.912;2023-08-24T06:37:53;1.13;;;1.13;;
82221;SDS011;71818;52.352;10.912;2023-08-24T06:40:18;0.88;;;0.88;;
82221;SDS011;71818;52.352;10.912;2023-08-24T06:42:44;0.63;;;0.63;;
82221;SDS011;71818;52.352;10.912;2023-08-24T06:45:09;0.80;;;0.80;;
82221;SDS011;71818;52.352;10.912;2023-08-24T06:47:35;1.20;;;1.10;;
82221;SDS011;71818;52.352;10.912;2023-08-24T06:50:01;0.43;;;0.43;;
82221;SDS011;71818;52.352;10.912;2023-08-24T06:52:26;1.08;;;1.08;;
82221;SDS011;71818;52.352;10.912;2023-08-24T06:54:51;0.93;;;0.93;;
82221;SDS011;71818;52.352;10.912;2023-08-24T06:57:20;0.40;;;0.40;;
82221;SDS011;71818;52.352;10.912;2023-08-24T06:59:45;0.40;;;0.40;;
82221;SDS011;71818;52.352;10.912;2023-08-24T07:02:11;0.90;;;0.90;;
82221;SDS011;71818;52.352;10.912;2023-08-24T07:04:36;0.95;;;0.95;;
82221;SDS011;71818;52.352;10.912;2023-08-24T07:07:03;0.85;;;0.85;;
82221;SDS011;71818;52.352;10.912;2023-08-24T07:09:29;0.80;;;0.80;;
82221;SDS011;71818;52.352;10.912;2023-08-24T07:11:54;0.60;;;0.60;;
82221;SDS011;71818;52.352;10.912;2023-08-24T07:14:19;0.93;;;0.93;;
82221;SDS011;71818;52.352;10.912;2023-08-24T07:16:45;0.55;;;0.55;;
82221;SDS011;71818;52.352;10.912;2023-08-24T07:19:10;0.77;;;0.77;;
82221;SDS011;71818;52.352;10.912;2023-08-24T07:21:35;0.90;;;0.90;;
82221;SDS011;71818;52.352;10.912;2023-08-24T07:24:01;1.02;;;1.02;;
82221;SDS011;71818;52.352;10.912;2023-08-24T07:26:26;0.40;;;0.40;;
82221;SDS011;71818;52.352;10.912;2023-08-24T07:28:52;1.00;;;1.00;;
82221;SDS011;71818;52.352;10.912;2023-08-24T07:31:17;0.40;;;0.40;;
82221;SDS011;71818;52.352;10.912;2023-08-24T07:33:43;0.35;;;0.35;;
82221;SDS011;71818;52.352;10.912;2023-08-24T07:36:09;0.40;;;0.40;;
82221;SDS011;71818;52.352;10.912;2023-08-24T07:38:34;1.20;;;1.10;;
82221;SDS011;71818;52.352;10.912;2023-08-24T07:41:00;1.20;;;1.17;;
82221;SDS011;71818;52.352;10.912;2023-08-24T07:43:25;0.28;;;0.28;;
82221;SDS011;71818;52.352;10.912;2023-08-24T07:45:51;0.70;;;0.70;;
82221;SDS011;71818;52.352;10.912;2023-08-24T07:48:17;0.40;;;0.40;;
82221;SDS011;71818;52.352;10.912;2023-08-24T07:50:42;0.85;;;0.85;;
82221;SDS011;71818;52.352;10.912;2023-08-24T07:53:08;1.08;;;1.08;;
82221;SDS011;71818;52.352;10.912;2023-08-24T07:55:33;0.82;;;0.82;;
82221;SDS011;71818;52.352;10.912;2023-08-24T07:57:59;0.85;;;0.85;;
82221;SDS011;71818;52.352;10.912;2023-08-24T08:00:24;0.40;;;0.40;;
82221;SDS011;71818;52.352;10.912;2023-08-24T08:02:50;0.90;;;0.90;;
82221;SDS011;71818;52.352;10.912;2023-08-24T08:05:16;0.40;;;0.40;;
82221;SDS011;71818;52.352;10.912;2023-08-24T08:07:42;0.98;;;0.98;;
82221;SDS011;71818;52.352;10.912;2023-08-24T08:10:08;0.88;;;0.88;;
82221;SDS011;71818;52.352;10.912;2023-08-24T08:12:34;0.20;;;0.20;;
82221;SDS011;71818;52.352;10.912;2023-08-24T08:15:00;1.17;;;1.17;;
82221;SDS011;71818;52.352;10.912;2023-08-24T08:17:25;0.52;;;0.52;;
82221;SDS011;71818;52.352;10.912;2023-08-24T08:19:56;0.40;;;0.40;;
82221;SDS011;71818;52.352;10.912;2023-08-24T08:22:22;0.40;;;0.40;;
82221;SDS011;71818;52.352;10.912;2023-08-24T08:24:47;0.50;;;0.50;;
82221;SDS011;71818;52.352;10.912;2023-08-24T08:27:13;0.30;;;0.30;;
82221;SDS011;71818;52.352;10.912;2023-08-24T08:29:38;0.22;;;0.22;;
82221;SDS011;71818;52.352;10.912;2023-08-24T08:32:04;0.98;;;0.98;;
82221;SDS011;71818;52.352;10.912;2023-08-24T08:34:30;0.80;;;0.80;;
82221;SDS011;71818;52.352;10.912;2023-08-24T08:36:56;0.88;;;0.88;;
82221;SDS011;71818;52.352;10.912;2023-08-24T08:39:22;0.32;;;0.32;;
82221;SDS011;71818;52.352;10.912;2023-08-24T08:41:47;0.32;;;0.32;;
82221;SDS011;71818;52.352;10.912;2023-08-24T08:44:16;0.98;;;0.98;;
82221;SDS011;71818;52.352;10.912;2023-08-24T08:46:43;0.50;;;0.50;;
82221;SDS011;71818;52.352;10.912;2023-08-24T08:49:09;0.63;;;0.63;;
82221;SDS011;71818;52.352;10.912;2023-08-24T08:51:38;0.25;;;0.25;;
82221;SDS011;71818;52.352;10.912;2023-08-24T08:54:04;1.00;;;1.00;;
82221;SDS011;71818;52.352;10.912;2023-08-24T08:56:31;0.60;;;0.60;;
82221;SDS011;71818;52.352;10.912;2023-08-24T08:58:58;0.70;;;0.70;;
82221;SDS011;71818;52.352;10.912;2023-08-24T09:01:24;0.90;;;0.90;;
82221;SDS011;71818;52.352;10.912;2023-08-24T09:03:50;0.57;;;0.57;;
82221;SDS011;71818;52.352;10.912;2023-08-24T09:06:16;0.30;;;0.30;;
82221;SDS011;71818;52.352;10.912;2023-08-24T09:08:42;0.93;;;0.93;;
82221;SDS011;71818;52.352;10.912;2023-08-24T09:11:08;0.25;;;0.25;;
82221;SDS011;71818;52.352;10.912;2023-08-24T09:13:34;0.40;;;0.40;;
82221;SDS011;71818;52.352;10.912;2023-08-24T09:16:04;0.20;;;0.20;;
82221;SDS011;71818;52.352;10.912;2023-08-24T09:18:37;0.80;;;0.80;;
82221;SDS011;71818;52.352;10.912;2023-08-24T09:21:10;0.90;;;0.90;;
82221;SDS011;71818;52.352;10.912;2023-08-24T09:23:37;0.77;;;0.77;;
82221;SDS011;71818;52.352;10.912;2023-08-24T09:26:07;0.40;;;0.40;;
82221;SDS011;71818;52.352;10.912;2023-08-24T09:28:33;0.20;;;0.20;;
82221;SDS011;71818;52.352;10.912;2023-08-24T09:31:01;0.68;;;0.68;;
82221;SDS011;71818;52.352;10.912;2023-08-24T09:33:27;0.30;;;0.30;;
82221;SDS011;71818;52.352;10.912;2023-08-24T09:35:53;0.43;;;0.43;;
82221;SDS011;71818;52.352;10.912;2023-08-24T09:38:23;0.45;;;0.45;;
82221;SDS011;71818;52.352;10.912;2023-08-24T09:40:52;0.80;;;0.80;;
82221;SDS011;71818;52.352;10.912;2023-08-24T09:43:19;0.30;;;0.30;;
82221;SDS011;71818;52.352;10.912;2023-08-24T09:45:55;1.20;;;1.20;;
82221;SDS011;71818;52.352;10.912;2023-08-24T09:48:21;0.73;;;0.73;;
82221;SDS011;71818;52.352;10.912;2023-08-24T09:50:51;0.85;;;0.85;;
82221;SDS011;71818;52.352;10.912;2023-08-24T09:53:18;0.50;;;0.50;;
82221;SDS011;71818;52.352;10.912;2023-08-24T09:58:27;0.43;;;0.43;;
82221;SDS011;71818;52.352;10.912;2023-08-24T10:00:52;0.30;;;0.30;;
82221;SDS011;71818;52.352;10.912;2023-08-24T10:03:20;0.30;;;0.30;;
82221;SDS011;71818;52.352;10.912;2023-08-24T10:05:50;0.38;;;0.38;;
82221;SDS011;71818;52.352;10.912;2023-08-24T10:08:20;0.40;;;0.40;;
82221;SDS011;71818;52.352;10.912;2023-08-24T10:10:50;0.70;;;0.70;;
82221;SDS011;71818;52.352;10.912;2023-08-24T10:13:20;0.75;;;0.75;;
82221;SDS011;71818;52.352;10.912;2023-08-24T10:15:59;0.40;;;0.40;;
82221;SDS011;71818;52.352;10.912;2023-08-24T10:18:25;0.80;;;0.80;;
82221;SDS011;71818;52.352;10.912;2023-08-24T10:20:52;0.73;;;0.73;;
82221;SDS011;71818;52.352;10.912;2023-08-24T10:23:18;0.22;;;0.22;;
82221;SDS011;71818;52.352;10.912;2023-08-24T10:25:46;0.52;;;0.52;;
82221;SDS011;71818;52.352;10.912;2023-08-24T10:28:11;0.30;;;0.30;;
82221;SDS011;71818;52.352;10.912;2023-08-24T10:30:39;0.82;;;0.82;;
82221;SDS011;71818;52.352;10.912;2023-08-24T10:33:08;0.70;;;0.70;;
82221;SDS011;71818;52.352;10.912;2023-08-24T10:35:36;0.60;;;0.55;;
82221;SDS011;71818;52.352;10.912;2023-08-24T10:38:02;0.63;;;0.63;;
82221;SDS011;71818;52.352;10.912;2023-08-24T10:40:35;0.30;;;0.30;;
82221;SDS011;71818;52.352;10.912;2023-08-24T10:43:04;0.40;;;0.40;;
82221;SDS011;71818;52.352;10.912;2023-08-24T10:49:07;0.73;;;0.73;;
82221;SDS011;71818;52.352;10.912;2023-08-24T10:56:57;0.20;;;0.20;;
82221;SDS011;71818;52.352;10.912;2023-08-24T10:59:23;0.60;;;0.60;;
82221;SDS011;71818;52.352;10.912;2023-08-24T11:04:17;0.43;;;0.43;;
82221;SDS011;71818;52.352;10.912;2023-08-24T11:09:22;0.52;;;0.52;;
82221;SDS011;71818;52.352;10.912;2023-08-24T11:12:01;0.52;;;0.52;;
82221;SDS011;71818;52.352;10.912;2023-08-24T11:14:28;0.30;;;0.30;;
82221;SDS011;71818;52.352;10.912;2023-08-24T11:17:16;0.30;;;0.30;;
82221;SDS011;71818;52.352;10.912;2023-08-24T11:19:49;0.73;;;0.73;;
82221;SDS011;71818;52.352;10.912;2023-08-24T11:22:17;0.65;;;0.65;;
82221;SDS011;71818;52.352;10.912;2023-08-24T11:24:42;0.60;;;0.60;;
82221;SDS011;71818;52.352;10.912;2023-08-24T11:27:08;0.32;;;0.32;;
82221;SDS011;71818;52.352;10.912;2023-08-24T11:29:34;0.28;;;0.28;;
82221;SDS011;71818;52.352;10.912;2023-08-24T11:31:59;0.70;;;0.70;;
82221;SDS011;71818;52.352;10.912;2023-08-24T11:34:25;0.45;;;0.45;;
82221;SDS011;71818;52.352;10.912;2023-08-24T11:36:50;0.60;;;0.60;;
82221;SDS011;71818;52.352;10.912;2023-08-24T11:39:20;0.63;;;0.63;;
82221;SDS011;71818;52.352;10.912;2023-08-24T11:44:23;0.70;;;0.70;;
82221;SDS011;71818;52.352;10.912;2023-08-24T11:46:48;0.80;;;0.80;;
82221;SDS011;71818;52.352;10.912;2023-08-24T11:49:14;0.60;;;0.60;;
82221;SDS011;71818;52.352;10.912;2023-08-24T11:51:39;0.20;;;0.20;;
82221;SDS011;71818;52.352;10.912;2023-08-24T11:54:05;0.70;;;0.70;;
82221;SDS011;71818;52.352;10.912;2023-08-24T11:56:31;0.20;;;0.20;;
82221;SDS011;71818;52.352;10.912;2023-08-24T11:58:56;0.70;;;0.70;;
82221;SDS011;71818;52.352;10.912;2023-08-24T12:01:22;0.60;;;0.60;;
82221;SDS011;71818;52.352;10.912;2023-08-24T12:03:48;0.45;;;0.45;;
82221;SDS011;71818;52.352;10.912;2023-08-24T12:06:15;0.70;;;0.70;;
82221;SDS011;71818;52.352;10.912;2023-08-24T12:08:42;0.60;;;0.60;;
82221;SDS011;71818;52.352;10.912;2023-08-24T12:11:17;0.70;;;0.70;;
82221;SDS011;71818;52.352;10.912;2023-08-24T12:13:44;0.28;;;0.28;;
82221;SDS011;71818;52.352;10.912;2023-08-24T12:16:16;0.10;;;0.10;;
82221;SDS011;71818;52.352;10.912;2023-08-24T12:19:00;0.30;;;0.30;;
82221;SDS011;71818;52.352;10.912;2023-08-24T12:21:29;0.52;;;0.52;;
82221;SDS011;71818;52.352;10.912;2023-08-24T12:23:58;0.30;;;0.30;;
82221;SDS011;71818;52.352;10.912;2023-08-24T12:28:55;0.30;;;0.30;;
82221;SDS011;71818;52.352;10.912;2023-08-24T12:31:28;0.20;;;0.20;;
82221;SDS011;71818;52.352;10.912;2023-08-24T12:36:31;0.32;;;0.32;;
82221;SDS011;71818;52.352;10.912;2023-08-24T12:38:57;0.30;;;0.30;;
82221;SDS011;71818;52.352;10.912;2023-08-24T12:41:23;0.90;;;0.90;;
82221;SDS011;71818;52.352;10.912;2023-08-24T12:43:49;0.20;;;0.20;;
82221;SDS011;71818;52.352;10.912;2023-08-24T12:46:15;0.43;;;0.43;;
82221;SDS011;71818;52.352;10.912;2023-08-24T12:48:41;0.80;;;0.80;;
82221;SDS011;71818;52.352;10.912;2023-08-24T12:51:06;0.60;;;0.60;;
82221;SDS011;71818;52.352;10.912;2023-08-24T12:53:31;0.52;;;0.52;;
82221;SDS011;71818;52.352;10.912;2023-08-24T12:55:57;0.28;;;0.20;;
82221;SDS011;71818;52.352;10.912;2023-08-24T12:58:22;0.55;;;0.55;;
82221;SDS011;71818;52.352;10.912;2023-08-24T13:00:47;0.45;;;0.45;;
82221;SDS011;71818;52.352;10.912;2023-08-24T13:03:13;0.55;;;0.55;;
82221;SDS011;71818;52.352;10.912;2023-08-24T13:05:39;0.70;;;0.70;;
82221;SDS011;71818;52.352;10.912;2023-08-24T13:08:04;0.60;;;0.60;;
82221;SDS011;71818;52.352;10.912;2023-08-24T13:10:30;0.22;;;0.22;;
82221;SDS011;71818;52.352;10.912;2023-08-24T13:12:55;0.52;;;0.52;;
82221;SDS011;71818;52.352;10.912;2023-08-24T13:15:21;0.20;;;0.20;;
82221;SDS011;71818;52.352;10.912;2023-08-24T13:17:46;0.20;;;0.20;;
82221;SDS011;71818;52.352;10.912;2023-08-24T13:20:12;0.45;;;0.45;;
82221;SDS011;71818;52.352;10.912;2023-08-24T13:22:37;0.30;;;0.30;;
82221;SDS011;71818;52.352;10.912;2023-08-24T13:25:03;0.20;;;0.20;;
82221;SDS011;71818;52.352;10.912;2023-08-24T13:27:28;0.70;;;0.70;;
82221;SDS011;71818;52.352;10.912;2023-08-24T13:29:54;0.68;;;0.68;;
82221;SDS011;71818;52.352;10.912;2023-08-24T13:32:21;0.63;;;0.63;;
82221;SDS011;71818;52.352;10.912;2023-08-24T13:34:47;0.60;;;0.60;;
82221;SDS011;71818;52.352;10.912;2023-08-24T13:37:12;0.20;;;0.20;;
82221;SDS011;71818;52.352;10.912;2023-08-24T13:39:38;0.35;;;0.35;;
82221;SDS011;71818;52.352;10.912;2023-08-24T13:42:03;0.60;;;0.60;;
82221;SDS011;71818;52.352;10.912;2023-08-24T13:44:29;0.70;;;0.70;;
82221;SDS011;71818;52.352;10.912;2023-08-24T13:46:54;0.22;;;0.22;;
82221;SDS011;71818;52.352;10.912;2023-08-24T13:49:19;0.60;;;0.60;;
82221;SDS011;71818;52.352;10.912;2023-08-24T13:51:45;0.35;;;0.35;;
82221;SDS011;71818;52.352;10.912;2023-08-24T13:54:18;0.50;;;0.45;;
82221;SDS011;71818;52.352;10.912;2023-08-24T13:56:44;0.50;;;0.50;;
82221;SDS011;71818;52.352;10.912;2023-08-24T13:59:10;0.22;;;0.22;;
82221;SDS011;71818;52.352;10.912;2023-08-24T14:01:36;0.52;;;0.52;;
82221;SDS011;71818;52.352;10.912;2023-08-24T14:04:02;0.50;;;0.50;;
82221;SDS011;71818;52.352;10.912;2023-08-24T14:06:29;0.17;;;0.17;;
82221;SDS011;71818;52.352;10.912;2023-08-24T14:08:55;0.60;;;0.60;;
82221;SDS011;71818;52.352;10.912;2023-08-24T14:11:21;0.22;;;0.22;;
82221;SDS011;71818;52.352;10.912;2023-08-24T14:13:47;0.25;;;0.25;;
82221;SDS011;71818;52.352;10.912;2023-08-24T14:16:12;0.40;;;0.38;;
82221;SDS011;71818;52.352;10.912;2023-08-24T14:18:37;0.30;;;0.30;;
82221;SDS011;71818;52.352;10.912;2023-08-24T14:21:03;0.50;;;0.50;;
82221;SDS011;71818;52.352;10.912;2023-08-24T14:23:28;0.57;;;0.57;;
82221;SDS011;71818;52.352;10.912;2023-08-24T14:25:54;0.22;;;0.22;;
82221;SDS011;71818;52.352;10.912;2023-08-24T14:28:20;0.30;;;0.30;;
82221;SDS011;71818;52.352;10.912;2023-08-24T14:30:48;0.22;;;0.22;;
82221;SDS011;71818;52.352;10.912;2023-08-24T14:33:16;0.40;;;0.40;;
82221;SDS011;71818;52.352;10.912;2023-08-24T14:35:49;0.60;;;0.60;;
82221;SDS011;71818;52.352;10.912;2023-08-24T14:38:16;0.32;;;0.32;;
82221;SDS011;71818;52.352;10.912;2023-08-24T14:40:41;0.30;;;0.30;;
82221;SDS011;71818;52.352;10.912;2023-08-24T14:43:07;0.60;;;0.60;;
82221;SDS011;71818;52.352;10.912;2023-08-24T14:45:32;0.32;;;0.32;;
82221;SDS011;71818;52.352;10.912;2023-08-24T14:47:57;0.22;;;0.22;;
82221;SDS011;71818;52.352;10.912;2023-08-24T14:50:23;0.38;;;0.30;;
82221;SDS011;71818;52.352;10.912;2023-08-24T14:52:48;0.17;;;0.17;;
82221;SDS011;71818;52.352;10.912;2023-08-24T14:55:13;0.47;;;0.47;;
82221;SDS011;71818;52.352;10.912;2023-08-24T14:57:39;0.30;;;0.30;;
82221;SDS011;71818;52.352;10.912;2023-08-24T15:00:04;0.80;;;0.80;;